createdAt,value
2023-03-12T00:00:11.149Z,3.33
2023-03-12T00:00:27.007Z,2.95
2023-03-12T00:00:43.597Z,3.72
2023-03-12T00:00:57.621Z,3.72
2023-03-12T00:01:17.808Z,3.00
2023-03-12T00:01:35.020Z,5.43
2023-03-12T00:01:50.582Z,10.38
2023-03-12T00:02:03.773Z,6.85
2023-03-12T00:02:16.875Z,3.33
2023-03-12T00:02:33.806Z,2.75
2023-03-12T00:02:46.705Z,3.05
2023-03-12T00:02:59.427Z,3.65
2023-03-12T00:03:20.055Z,4.63
2023-03-12T00:03:35.960Z,5.30
2023-03-12T00:03:51.072Z,3.85
2023-03-12T00:04:06.386Z,2.90
2023-03-12T00:04:20.542Z,4.93
2023-03-12T00:04:38.103Z,5.25
2023-03-12T00:04:55.715Z,3.25
2023-03-12T00:05:09.586Z,2.90
2023-03-12T00:05:24.189Z,3.38
2023-03-12T00:05:40.038Z,4.75
2023-03-12T00:05:53.140Z,6.53
2023-03-12T00:06:10.824Z,5.47
2023-03-12T00:06:28.896Z,4.28
2023-03-12T00:06:40.668Z,3.53
2023-03-12T00:06:55.011Z,3.20
2023-03-12T00:07:07.801Z,3.83
2023-03-12T00:07:20.088Z,4.32
2023-03-12T00:07:33.950Z,3.75
2023-03-12T00:07:47.778Z,4.32
2023-03-12T00:08:02.485Z,4.05
2023-03-12T00:08:15.872Z,3.20
2023-03-12T00:08:29.506Z,2.85
2023-03-12T00:08:42.048Z,2.92
2023-03-12T00:08:57.129Z,3.08
2023-03-12T00:09:10.988Z,4.10
2023-03-12T00:09:24.642Z,4.55
2023-03-12T00:09:38.837Z,3.60
2023-03-12T00:09:51.426Z,3.92
2023-03-12T00:10:04.642Z,3.67
2023-03-12T00:10:17.545Z,3.05
2023-03-12T00:10:30.043Z,3.35
2023-03-12T00:10:42.838Z,3.10
2023-03-12T00:10:55.152Z,3.67
2023-03-12T00:11:08.709Z,4.40
2023-03-12T00:11:22.279Z,3.55
2023-03-12T00:11:37.155Z,3.00
2023-03-12T00:11:50.140Z,3.05
2023-03-12T00:12:02.763Z,3.28
2023-03-12T00:12:14.952Z,3.17
2023-03-12T00:12:29.429Z,3.00
2023-03-12T00:12:42.115Z,3.00
2023-03-12T00:12:55.815Z,3.05
2023-03-12T00:13:08.762Z,2.95
2023-03-12T00:13:21.181Z,2.80
2023-03-12T00:13:34.124Z,3.25
2023-03-12T00:13:50.160Z,3.65
2023-03-12T00:14:02.063Z,3.67
2023-03-12T00:14:14.364Z,3.40
2023-03-12T00:14:27.032Z,2.92
2023-03-12T00:14:39.762Z,2.97
2023-03-12T00:14:51.877Z,2.88
2023-03-12T00:15:04.901Z,3.25
2023-03-12T00:15:18.898Z,3.80
2023-03-12T00:15:31.604Z,3.25
2023-03-12T00:15:43.642Z,3.30
2023-03-12T00:15:56.133Z,3.22
2023-03-12T00:16:10.581Z,3.70
2023-03-12T00:16:24.257Z,4.00
2023-03-12T00:16:36.828Z,3.70
2023-03-12T00:16:51.949Z,3.70
2023-03-12T00:17:04.654Z,3.88
2023-03-12T00:17:18.334Z,2.63
2023-03-12T00:17:32.285Z,2.55
2023-03-12T00:17:55.533Z,3.28
2023-03-12T00:18:07.665Z,2.97
2023-03-12T00:18:22.309Z,3.10
2023-03-12T00:18:36.046Z,4.55
2023-03-12T00:18:49.883Z,4.78
2023-03-12T00:19:03.104Z,3.80
2023-03-12T00:19:16.284Z,3.15
2023-03-12T00:19:29.344Z,2.97
2023-03-12T00:19:41.946Z,3.67
2023-03-12T00:19:55.339Z,3.80
2023-03-12T00:20:08.431Z,2.97
2023-03-12T00:20:22.463Z,3.15
2023-03-12T00:20:34.785Z,3.38
2023-03-12T00:20:55.146Z,3.22
2023-03-12T00:21:09.308Z,2.60
2023-03-12T00:21:24.084Z,2.58
2023-03-12T00:21:36.915Z,2.63
2023-03-12T00:21:55.408Z,3.38
2023-03-12T00:22:09.588Z,3.85
2023-03-12T00:22:22.273Z,3.67
2023-03-12T00:22:36.199Z,3.50
2023-03-12T00:22:50.577Z,3.85
2023-03-12T00:23:05.069Z,3.88
2023-03-12T00:23:18.920Z,2.95
2023-03-12T00:23:33.783Z,2.67
2023-03-12T00:23:49.025Z,3.70
2023-03-12T00:24:02.076Z,3.33
2023-03-12T00:24:14.229Z,3.15
2023-03-12T00:24:27.845Z,3.30
2023-03-12T00:24:45.760Z,2.97
2023-03-12T00:24:58.567Z,3.16
2023-03-12T00:25:14.895Z,3.47
2023-03-12T00:25:28.558Z,3.47
2023-03-12T00:25:45.547Z,4.15
2023-03-12T00:26:02.765Z,3.95
2023-03-12T00:26:17.464Z,3.50
2023-03-12T00:26:31.546Z,2.70
2023-03-12T00:26:48.079Z,2.70
2023-03-12T00:27:00.852Z,3.15
2023-03-12T00:27:15.015Z,3.13
2023-03-12T00:27:28.842Z,2.88
2023-03-12T00:27:44.344Z,2.95
2023-03-12T00:27:59.263Z,2.67
2023-03-12T00:28:15.806Z,3.85
2023-03-12T00:28:30.870Z,4.53
2023-03-12T00:28:47.189Z,3.17
2023-03-12T00:29:09.076Z,3.03
2023-03-12T00:29:26.644Z,3.95
2023-03-12T00:29:39.684Z,3.50
2023-03-12T00:29:52.284Z,4.43
2023-03-12T00:30:08.256Z,4.20
2023-03-12T00:30:21.663Z,3.25
2023-03-12T00:30:33.479Z,3.05
2023-03-12T00:30:48.568Z,3.10
2023-03-12T00:31:05.890Z,3.55
2023-03-12T00:31:22.746Z,3.65
2023-03-12T00:32:11.897Z,2.96
2023-03-12T00:32:26.758Z,3.40
2023-03-12T00:32:45.055Z,3.22
2023-03-12T00:32:59.571Z,3.22
2023-03-12T00:33:12.229Z,3.97
2023-03-12T00:33:38.946Z,4.85
2023-03-12T00:33:55.150Z,2.42
2023-03-12T00:34:12.131Z,2.92
2023-03-12T00:34:25.305Z,3.20
2023-03-12T00:34:51.452Z,2.48
2023-03-12T00:35:08.258Z,2.75
2023-03-12T00:35:35.396Z,3.10
2023-03-12T00:35:58.120Z,4.32
2023-03-12T00:36:10.750Z,2.95
2023-03-12T00:36:25.862Z,3.55
2023-03-12T00:36:38.364Z,4.30
2023-03-12T00:36:51.962Z,3.58
2023-03-12T00:37:06.402Z,2.70
2023-03-12T00:37:18.806Z,2.47
2023-03-12T00:37:31.874Z,2.63
2023-03-12T00:37:46.375Z,2.97
2023-03-12T00:37:58.915Z,4.90
2023-03-12T00:38:12.772Z,4.90
2023-03-12T00:38:25.384Z,3.72
2023-03-12T00:38:39.916Z,6.80
2023-03-12T00:38:54.742Z,6.13
2023-03-12T00:39:08.770Z,3.65
2023-03-12T00:39:21.347Z,4.03
2023-03-12T00:39:43.126Z,4.50
2023-03-12T00:39:56.504Z,3.88
2023-03-12T00:40:09.984Z,4.70
2023-03-12T00:40:24.503Z,4.03
2023-03-12T00:40:38.947Z,3.08
2023-03-12T00:40:53.189Z,3.05
2023-03-12T00:41:12.544Z,3.17
2023-03-12T00:41:29.553Z,3.40
2023-03-12T00:41:47.888Z,3.00
2023-03-12T00:42:02.956Z,2.78
2023-03-12T00:42:16.834Z,3.20
2023-03-12T00:42:32.887Z,3.20
2023-03-12T00:42:53.545Z,2.92
2023-03-12T00:43:09.851Z,3.33
2023-03-12T00:43:29.375Z,2.85
2023-03-12T00:43:41.985Z,2.95
2023-03-12T00:43:54.989Z,5.15
2023-03-12T00:44:12.260Z,5.75
2023-03-12T00:44:27.009Z,4.13
2023-03-12T00:44:41.342Z,4.20
2023-03-12T00:44:53.933Z,3.72
2023-03-12T00:45:08.209Z,2.78
2023-03-12T00:45:20.861Z,3.78
2023-03-12T00:45:33.175Z,4.88
2023-03-12T00:45:46.364Z,4.28
2023-03-12T00:46:00.608Z,2.85
2023-03-12T00:46:14.150Z,2.83
2023-03-12T00:46:29.682Z,2.90
2023-03-12T00:46:43.243Z,2.67
2023-03-12T00:47:01.762Z,3.05
2023-03-12T00:47:14.834Z,3.78
2023-03-12T00:47:30.246Z,3.00
2023-03-12T00:47:48.379Z,2.80
2023-03-12T00:48:02.528Z,2.55
2023-03-12T00:48:18.265Z,3.05
2023-03-12T00:48:30.552Z,3.10
2023-03-12T00:48:43.008Z,3.08
2023-03-12T00:49:04.453Z,2.75
2023-03-12T00:49:19.194Z,2.40
2023-03-12T00:49:37.637Z,2.17
2023-03-12T00:49:58.870Z,3.22
2023-03-12T00:50:13.445Z,2.63
2023-03-12T00:50:29.325Z,2.60
2023-03-12T00:50:42.722Z,3.08
2023-03-12T00:51:00.071Z,2.72
2023-03-12T00:51:15.263Z,2.33
2023-03-12T00:51:31.631Z,2.40
2023-03-12T00:51:44.080Z,3.60
2023-03-12T00:51:56.993Z,3.88
2023-03-12T00:52:11.412Z,3.25
2023-03-12T00:52:27.686Z,3.60
2023-03-12T00:52:41.728Z,4.32
2023-03-12T00:52:57.035Z,3.75
2023-03-12T00:53:11.167Z,2.65
2023-03-12T00:53:23.939Z,3.58
2023-03-12T00:53:38.836Z,3.45
2023-03-12T00:53:51.831Z,3.05
2023-03-12T00:54:07.435Z,2.45
2023-03-12T00:54:20.740Z,2.42
2023-03-12T00:54:33.337Z,2.35
2023-03-12T00:54:46.066Z,2.75
2023-03-12T00:55:00.194Z,2.90
2023-03-12T00:55:16.240Z,3.67
2023-03-12T00:55:28.734Z,3.17
2023-03-12T00:55:42.569Z,2.47
2023-03-12T00:55:59.076Z,2.90
2023-03-12T00:56:11.191Z,3.83
2023-03-12T00:56:23.791Z,3.53
2023-03-12T00:56:36.049Z,2.75
2023-03-12T00:56:49.751Z,2.40
2023-03-12T00:57:03.980Z,2.63
2023-03-12T00:57:16.897Z,2.45
2023-03-12T00:57:29.975Z,2.70
2023-03-12T00:57:45.269Z,2.95
2023-03-12T00:57:59.996Z,3.00
2023-03-12T00:58:12.720Z,3.92
2023-03-12T00:58:26.560Z,3.92
2023-03-12T00:58:39.200Z,2.85
2023-03-12T00:58:52.978Z,4.05
2023-03-12T00:59:05.495Z,3.95
2023-03-12T00:59:18.756Z,3.78
2023-03-12T00:59:36.701Z,3.03
2023-03-12T00:59:49.607Z,2.53
2023-03-12T01:00:02.758Z,3.75
2023-03-12T01:00:17.276Z,3.60
2023-03-12T01:00:31.053Z,3.22
2023-03-12T01:00:46.739Z,3.25
2023-03-12T01:01:01.229Z,2.80
2023-03-12T01:01:23.820Z,2.92
2023-03-12T01:01:37.354Z,2.97
2023-03-12T01:01:50.431Z,2.50
2023-03-12T01:02:08.213Z,2.45
2023-03-12T01:02:23.751Z,2.70
2023-03-12T01:02:40.062Z,3.58
2023-03-12T01:02:59.293Z,6.28
2023-03-12T01:03:11.625Z,5.82
2023-03-12T01:03:24.606Z,2.60
2023-03-12T01:03:37.286Z,2.25
2023-03-12T01:03:52.973Z,2.20
2023-03-12T01:04:06.859Z,2.33
2023-03-12T01:04:25.575Z,2.40
2023-03-12T01:04:41.913Z,2.78
2023-03-12T01:04:54.203Z,3.72
2023-03-12T01:05:12.595Z,4.88
2023-03-12T01:05:30.805Z,4.00
2023-03-12T01:05:46.023Z,2.70
2023-03-12T01:05:59.180Z,2.38
2023-03-12T01:06:14.770Z,2.20
2023-03-12T01:06:27.472Z,2.25
2023-03-12T01:06:40.065Z,2.55
2023-03-12T01:06:55.381Z,2.65
2023-03-12T01:07:10.296Z,3.72
2023-03-12T01:07:22.942Z,3.78
2023-03-12T01:07:36.762Z,3.08
2023-03-12T01:07:55.435Z,3.50
2023-03-12T01:08:12.125Z,2.67
2023-03-12T01:08:25.174Z,2.53
2023-03-12T01:08:38.860Z,3.22
2023-03-12T01:08:54.981Z,3.20
2023-03-12T01:09:09.231Z,2.30
2023-03-12T01:09:21.576Z,2.40
2023-03-12T01:09:34.573Z,2.50
2023-03-12T01:09:48.861Z,2.60
2023-03-12T01:10:02.592Z,2.63
2023-03-12T01:10:19.076Z,2.28
2023-03-12T01:10:32.997Z,2.45
2023-03-12T01:10:47.128Z,2.60
2023-03-12T01:11:03.051Z,2.70
2023-03-12T01:11:18.492Z,2.78
2023-03-12T01:11:31.817Z,2.72
2023-03-12T01:11:49.492Z,2.95
2023-03-12T01:12:02.883Z,3.47
2023-03-12T01:12:15.942Z,3.63
2023-03-12T01:12:33.761Z,2.75
2023-03-12T01:12:51.264Z,2.20
2023-03-12T01:13:04.694Z,3.42
2023-03-12T01:13:18.051Z,4.15
2023-03-12T01:13:33.745Z,3.80
2023-03-12T01:13:46.723Z,2.60
2023-03-12T01:14:00.268Z,2.40
2023-03-12T01:14:16.204Z,2.88
2023-03-12T01:14:32.665Z,4.00
2023-03-12T01:14:46.027Z,3.80
2023-03-12T01:15:02.658Z,3.15
2023-03-12T01:15:17.271Z,2.38
2023-03-12T01:15:30.533Z,2.63
2023-03-12T01:15:43.856Z,3.50
2023-03-12T01:15:57.725Z,3.22
2023-03-12T01:16:10.994Z,2.33
2023-03-12T01:16:23.421Z,2.25
2023-03-12T01:16:36.365Z,3.40
2023-03-12T01:16:52.462Z,3.33
2023-03-12T01:17:10.159Z,2.97
2023-03-12T01:17:22.651Z,3.67
2023-03-12T01:17:35.196Z,3.13
2023-03-12T01:17:49.624Z,2.65
2023-03-12T01:18:21.636Z,3.13
2023-03-12T01:18:37.390Z,4.68
2023-03-12T01:18:50.619Z,3.53
2023-03-12T01:19:06.779Z,2.70
2023-03-12T01:19:19.923Z,3.33
2023-03-12T01:19:32.997Z,2.88
2023-03-12T01:19:48.935Z,2.65
2023-03-12T01:20:01.674Z,3.15
2023-03-12T01:20:14.835Z,3.83
2023-03-12T01:20:27.886Z,3.50
2023-03-12T01:20:40.248Z,2.40
2023-03-12T01:20:53.140Z,2.80
2023-03-12T01:21:06.127Z,3.63
2023-03-12T01:21:18.834Z,3.10
2023-03-12T01:21:32.464Z,2.47
2023-03-12T01:21:44.635Z,2.40
2023-03-12T01:21:59.482Z,2.55
2023-03-12T01:22:12.092Z,2.72
2023-03-12T01:22:29.498Z,2.70
2023-03-12T01:22:43.171Z,3.35
2023-03-12T01:22:57.402Z,3.47
2023-03-12T01:23:11.382Z,3.00
2023-03-12T01:23:25.868Z,2.85
2023-03-12T01:23:39.574Z,3.08
2023-03-12T01:23:51.771Z,3.13
2023-03-12T01:24:07.097Z,4.07
2023-03-12T01:24:21.829Z,3.83
2023-03-12T01:24:34.877Z,2.80
2023-03-12T01:24:48.372Z,3.20
2023-03-12T01:25:03.722Z,2.97
2023-03-12T01:25:17.781Z,2.50
2023-03-12T01:25:29.879Z,2.55
2023-03-12T01:25:42.677Z,3.28
2023-03-12T01:25:54.782Z,3.03
2023-03-12T01:26:09.015Z,2.65
2023-03-12T01:26:26.057Z,2.88
2023-03-12T01:26:39.921Z,3.03
2023-03-12T01:27:11.813Z,4.38
2023-03-12T01:27:25.017Z,3.58
2023-03-12T01:27:39.642Z,2.22
2023-03-12T01:27:51.902Z,2.30
2023-03-12T01:28:05.076Z,3.10
2023-03-12T01:28:17.977Z,4.13
2023-03-12T01:28:30.468Z,3.67
2023-03-12T01:28:46.302Z,2.53
2023-03-12T01:28:59.392Z,2.95
2023-03-12T01:29:11.897Z,2.83
2023-03-12T01:29:24.675Z,2.95
2023-03-12T01:29:37.009Z,3.08
2023-03-12T01:29:49.022Z,3.13
2023-03-12T01:30:01.710Z,2.44
2023-03-12T01:30:14.389Z,2.70
2023-03-12T01:30:27.364Z,3.65
2023-03-12T01:30:43.638Z,3.88
2023-03-12T01:30:55.938Z,3.47
2023-03-12T01:31:09.618Z,3.72
2023-03-12T01:31:23.300Z,3.17
2023-03-12T01:31:36.620Z,2.45
2023-03-12T01:31:48.769Z,2.42
2023-03-12T01:32:00.914Z,3.00
2023-03-12T01:32:13.621Z,2.88
2023-03-12T01:32:26.941Z,3.72
2023-03-12T01:32:41.331Z,3.33
2023-03-12T01:32:54.109Z,2.65
2023-03-12T01:33:08.632Z,2.72
2023-03-12T01:33:23.203Z,2.53
2023-03-12T01:33:35.622Z,2.25
2023-03-12T01:33:50.973Z,2.67
2023-03-12T01:34:05.562Z,3.00
2023-03-12T01:34:18.429Z,2.80
2023-03-12T01:34:30.889Z,3.20
2023-03-12T01:34:43.293Z,2.95
2023-03-12T01:34:58.188Z,2.40
2023-03-12T01:35:13.128Z,2.47
2023-03-12T01:35:27.074Z,3.05
2023-03-12T01:35:44.676Z,4.03
2023-03-12T01:36:00.354Z,3.08
2023-03-12T01:36:21.101Z,2.65
2023-03-12T01:36:36.138Z,2.88
2023-03-12T01:36:48.355Z,4.00
2023-03-12T01:37:00.822Z,5.13
2023-03-12T01:37:13.647Z,3.75
2023-03-12T01:37:25.831Z,2.47
2023-03-12T01:37:42.179Z,2.33
2023-03-12T01:37:55.496Z,2.55
2023-03-12T01:38:14.825Z,2.47
2023-03-12T01:38:27.616Z,2.56
2023-03-12T01:38:43.741Z,2.60
2023-03-12T01:39:00.127Z,2.55
2023-03-12T01:39:14.754Z,2.72
2023-03-12T01:39:28.713Z,4.57
2023-03-12T01:39:48.352Z,4.80
2023-03-12T01:40:05.892Z,3.15
2023-03-12T01:40:24.599Z,2.78
2023-03-12T01:40:39.162Z,2.60
2023-03-12T01:40:52.962Z,2.63
2023-03-12T01:41:16.802Z,3.40
2023-03-12T01:41:32.484Z,3.22
2023-03-12T01:41:45.619Z,3.90
2023-03-12T01:41:59.683Z,4.15
2023-03-12T01:42:15.976Z,2.80
2023-03-12T01:42:34.045Z,2.53
2023-03-12T01:42:55.704Z,2.80
2023-03-12T01:43:26.397Z,3.17
2023-03-12T01:43:40.784Z,3.53
2023-03-12T01:43:55.049Z,3.67
2023-03-12T01:44:14.939Z,3.08
2023-03-12T01:44:28.485Z,2.83
2023-03-12T01:44:58.775Z,2.50
2023-03-12T01:45:59.264Z,3.03
2023-03-12T01:46:28.056Z,3.17
2023-03-12T01:46:42.914Z,2.63
2023-03-12T01:47:01.447Z,2.75
2023-03-12T01:47:13.754Z,2.50
2023-03-12T01:47:29.171Z,2.30
2023-03-12T01:47:43.532Z,2.40
2023-03-12T01:47:57.241Z,2.95
2023-03-12T01:48:14.067Z,3.35
2023-03-12T01:48:27.966Z,3.13
2023-03-12T01:48:46.766Z,3.33
2023-03-12T01:49:08.492Z,3.30
2023-03-12T01:49:24.938Z,2.72
2023-03-12T01:49:38.600Z,2.72
2023-03-12T01:49:58.515Z,2.85
2023-03-12T01:50:14.938Z,2.50
2023-03-12T01:50:29.350Z,2.55
2023-03-12T01:50:43.301Z,2.67
2023-03-12T01:50:55.782Z,2.35
2023-03-12T01:51:18.652Z,2.30
2023-03-12T01:51:38.417Z,3.20
2023-03-12T01:52:00.634Z,2.50
2023-03-12T01:52:22.856Z,2.72
2023-03-12T01:52:39.424Z,3.25
2023-03-12T01:52:53.755Z,3.15
2023-03-12T01:53:18.410Z,3.70
2023-03-12T01:53:35.062Z,2.70
2023-03-12T01:53:59.047Z,2.40
2023-03-12T01:54:15.983Z,3.53
2023-03-12T01:54:33.966Z,4.03
2023-03-12T01:54:53.577Z,3.45
2023-03-12T01:55:09.518Z,4.20
2023-03-12T01:55:27.130Z,2.95
2023-03-12T01:55:40.618Z,2.55
2023-03-12T01:55:54.003Z,3.00
2023-03-12T01:56:09.828Z,3.10
2023-03-12T01:56:28.320Z,2.42
2023-03-12T01:56:42.998Z,2.45
2023-03-12T01:56:58.063Z,2.78
2023-03-12T01:57:17.782Z,3.08
2023-03-12T01:57:34.794Z,3.03
2023-03-12T01:57:53.815Z,2.80
2023-03-12T01:58:09.874Z,3.20
2023-03-12T01:58:23.783Z,3.60
2023-03-12T01:58:40.924Z,3.33
2023-03-12T01:59:00.680Z,3.53
2023-03-12T01:59:20.008Z,4.85
2023-03-12T01:59:43.440Z,2.63
2023-03-12T01:59:59.908Z,2.72
2023-03-12T02:00:17.973Z,3.45
2023-03-12T02:00:35.637Z,3.67
2023-03-12T02:00:49.945Z,3.53
2023-03-12T02:01:02.691Z,3.25
2023-03-12T02:01:19.397Z,3.90
2023-03-12T02:01:38.361Z,3.78
2023-03-12T02:01:53.425Z,3.13
2023-03-12T02:02:10.511Z,2.40
2023-03-12T02:02:24.641Z,2.40
2023-03-12T02:02:37.996Z,3.10
2023-03-12T02:03:03.200Z,3.88
2023-03-12T02:03:24.300Z,3.50
2023-03-12T02:03:37.659Z,3.08
2023-03-12T02:03:58.865Z,2.75
2023-03-12T02:04:13.286Z,3.47
2023-03-12T02:04:38.938Z,3.28
2023-03-12T02:04:57.471Z,2.55
2023-03-12T02:05:18.372Z,4.05
2023-03-12T02:05:38.440Z,3.97
2023-03-12T02:05:53.908Z,2.28
2023-03-12T02:06:11.855Z,2.38
2023-03-12T02:06:30.433Z,2.47
2023-03-12T02:06:51.457Z,3.30
2023-03-12T02:07:07.625Z,3.83
2023-03-12T02:07:23.675Z,2.90
2023-03-12T02:07:37.923Z,2.50
2023-03-12T02:07:52.047Z,2.30
2023-03-12T02:08:06.011Z,3.25
2023-03-12T02:08:20.525Z,5.05
2023-03-12T02:08:38.028Z,4.47
2023-03-12T02:08:59.951Z,2.83
2023-03-12T02:09:19.397Z,2.40
2023-03-12T02:09:37.325Z,2.60
2023-03-12T02:09:49.893Z,3.13
2023-03-12T02:10:04.823Z,3.38
2023-03-12T02:10:17.932Z,2.53
2023-03-12T02:10:33.248Z,2.30
2023-03-12T02:10:46.439Z,2.53
2023-03-12T02:10:59.478Z,2.67
2023-03-12T02:11:12.384Z,2.97
2023-03-12T02:11:26.677Z,2.38
2023-03-12T02:11:39.884Z,2.38
2023-03-12T02:11:53.994Z,2.50
2023-03-12T02:12:10.651Z,2.45
2023-03-12T02:12:25.182Z,2.97
2023-03-12T02:12:38.917Z,2.97
2023-03-12T02:12:52.044Z,3.05
2023-03-12T02:13:06.942Z,3.30
2023-03-12T02:13:19.490Z,4.22
2023-03-12T02:13:38.452Z,4.07
2023-03-12T02:13:53.657Z,4.18
2023-03-12T02:14:07.255Z,3.72
2023-03-12T02:14:20.769Z,3.78
2023-03-12T02:14:33.933Z,4.68
2023-03-12T02:14:49.421Z,5.68
2023-03-12T02:15:07.358Z,4.28
2023-03-12T02:15:23.543Z,3.28
2023-03-12T02:15:39.213Z,2.60
2023-03-12T02:16:03.799Z,3.20
2023-03-12T02:16:19.463Z,3.47
2023-03-12T02:16:33.282Z,4.20
2023-03-12T02:16:46.375Z,3.88
2023-03-12T02:16:59.546Z,3.47
2023-03-12T02:17:15.589Z,2.30
2023-03-12T02:17:28.728Z,2.30
2023-03-12T02:17:45.764Z,2.60
2023-03-12T02:17:58.947Z,4.70
2023-03-12T02:18:16.368Z,4.22
2023-03-12T02:18:29.568Z,2.30
2023-03-12T02:18:46.757Z,3.03
2023-03-12T02:19:04.643Z,3.75
2023-03-12T02:19:24.582Z,2.96
2023-03-12T02:19:45.028Z,2.40
2023-03-12T02:20:04.699Z,2.67
2023-03-12T02:20:23.888Z,3.28
2023-03-12T02:20:43.721Z,3.22
2023-03-12T02:21:04.585Z,3.33
2023-03-12T02:21:24.911Z,2.53
2023-03-12T02:21:39.709Z,3.95
2023-03-12T02:21:53.568Z,3.67
2023-03-12T02:22:08.844Z,2.67
2023-03-12T02:22:24.006Z,3.55
2023-03-12T02:22:40.865Z,3.60
2023-03-12T02:23:01.083Z,2.95
2023-03-12T02:23:21.668Z,2.95
2023-03-12T02:23:40.372Z,5.38
2023-03-12T02:24:00.861Z,5.40
2023-03-12T02:24:22.118Z,3.75
2023-03-12T02:24:39.719Z,3.20
2023-03-12T02:24:59.774Z,3.63
2023-03-12T02:25:25.085Z,3.45
2023-03-12T02:25:42.117Z,2.75
2023-03-12T02:25:55.819Z,2.58
2023-03-12T02:26:09.884Z,3.17
2023-03-12T02:26:27.475Z,3.33
2023-03-12T02:26:40.961Z,3.15
2023-03-12T02:26:55.355Z,3.70
2023-03-12T02:27:10.300Z,4.05
2023-03-12T02:27:24.980Z,3.97
2023-03-12T02:27:39.849Z,3.58
2023-03-12T02:27:53.357Z,3.72
2023-03-12T02:28:09.291Z,3.70
2023-03-12T02:28:28.953Z,3.30
2023-03-12T02:28:48.381Z,2.72
2023-03-12T02:29:04.575Z,2.58
2023-03-12T02:29:20.043Z,2.75
2023-03-12T02:29:36.005Z,2.83
2023-03-12T02:29:48.931Z,2.85
2023-03-12T02:30:02.753Z,3.35
2023-03-12T02:30:20.189Z,4.15
2023-03-12T02:30:35.675Z,3.33
2023-03-12T02:30:58.541Z,3.10
2023-03-12T02:31:14.254Z,3.55
2023-03-12T02:31:32.205Z,2.80
2023-03-12T02:31:51.243Z,2.88
2023-03-12T02:32:04.506Z,4.25
2023-03-12T02:32:23.513Z,4.13
2023-03-12T02:32:39.590Z,3.20
2023-03-12T02:32:53.473Z,3.04
2023-03-12T02:33:10.564Z,3.22
2023-03-12T02:33:23.629Z,3.38
2023-03-12T02:33:36.033Z,3.85
2023-03-12T02:33:49.153Z,3.45
2023-03-12T02:34:01.778Z,3.25
2023-03-12T02:34:14.927Z,4.28
2023-03-12T02:34:27.071Z,4.55
2023-03-12T02:34:39.922Z,3.40
2023-03-12T02:34:57.019Z,2.95
2023-03-12T02:35:13.745Z,3.33
2023-03-12T02:35:29.179Z,4.82
2023-03-12T02:35:42.968Z,4.70
2023-03-12T02:35:55.809Z,3.33
2023-03-12T02:36:10.693Z,3.10
2023-03-12T02:36:23.913Z,2.90
2023-03-12T02:36:37.380Z,2.97
2023-03-12T02:36:52.507Z,2.90
2023-03-12T02:37:04.679Z,3.08
2023-03-12T02:37:19.597Z,3.00
2023-03-12T02:37:32.247Z,3.33
2023-03-12T02:37:53.781Z,3.78
2023-03-12T02:38:33.893Z,5.13
2023-03-12T02:38:47.910Z,8.68
2023-03-12T02:39:02.773Z,7.05
2023-03-12T02:39:15.650Z,4.35
2023-03-12T02:39:28.565Z,3.60
2023-03-12T02:39:49.285Z,4.40
2023-03-12T02:40:09.908Z,3.33
2023-03-12T02:40:29.691Z,3.78
2023-03-12T02:40:48.184Z,3.70
2023-03-12T02:41:03.931Z,4.13
2023-03-12T02:41:20.806Z,3.72
2023-03-12T02:41:37.426Z,3.47
2023-03-12T02:41:54.209Z,4.55
2023-03-12T02:42:09.228Z,4.55
2023-03-12T02:42:26.527Z,3.58
2023-03-12T02:42:40.772Z,4.10
2023-03-12T02:42:54.909Z,5.55
2023-03-12T02:43:09.946Z,5.50
2023-03-12T02:43:24.199Z,5.18
2023-03-12T02:43:40.127Z,4.30
2023-03-12T02:44:00.179Z,3.25
2023-03-12T02:44:16.830Z,3.13
2023-03-12T02:44:33.265Z,3.13
2023-03-12T02:44:46.619Z,3.58
2023-03-12T02:44:59.675Z,3.47
2023-03-12T02:45:11.867Z,3.40
2023-03-12T02:45:25.943Z,3.10
2023-03-12T02:45:40.723Z,3.10
2023-03-12T02:45:54.715Z,3.42
2023-03-12T02:46:10.369Z,3.05
2023-03-12T02:46:23.468Z,2.95
2023-03-12T02:46:39.536Z,3.17
2023-03-12T02:46:55.817Z,4.30
2023-03-12T02:47:09.288Z,3.60
2023-03-12T02:47:22.571Z,3.67
2023-03-12T02:47:35.320Z,3.50
2023-03-12T02:47:47.929Z,3.17
2023-03-12T02:48:00.189Z,3.38
2023-03-12T02:48:16.584Z,3.55
2023-03-12T02:48:31.240Z,3.80
2023-03-12T02:48:43.585Z,3.30
2023-03-12T02:48:56.323Z,3.80
2023-03-12T02:49:10.646Z,4.75
2023-03-12T02:49:27.753Z,4.82
2023-03-12T02:49:40.738Z,4.05
2023-03-12T02:49:53.052Z,3.90
2023-03-12T02:50:07.762Z,3.67
2023-03-12T02:50:20.676Z,3.92
2023-03-12T02:50:33.375Z,3.38
2023-03-12T02:50:45.515Z,3.17
2023-03-12T02:50:57.997Z,3.55
2023-03-12T02:51:10.844Z,3.60
2023-03-12T02:51:24.285Z,4.45
2023-03-12T02:51:36.906Z,4.97
2023-03-12T02:51:50.218Z,5.20
2023-03-12T02:52:02.917Z,4.80
2023-03-12T02:52:15.947Z,4.50
2023-03-12T02:52:29.086Z,3.50
2023-03-12T02:52:43.956Z,4.00
2023-03-12T02:52:56.878Z,4.22
2023-03-12T02:53:09.888Z,4.25
2023-03-12T02:53:23.892Z,5.00
2023-03-12T02:53:38.559Z,4.43
2023-03-12T02:53:52.320Z,4.38
2023-03-12T02:54:08.119Z,3.53
2023-03-12T02:54:22.739Z,3.47
2023-03-12T02:54:35.467Z,3.88
2023-03-12T02:54:48.914Z,3.63
2023-03-12T02:55:03.131Z,3.13
2023-03-12T02:55:15.085Z,2.92
2023-03-12T02:55:31.650Z,3.85
2023-03-12T02:55:44.209Z,4.47
2023-03-12T02:55:56.945Z,4.50
2023-03-12T02:56:12.204Z,4.32
2023-03-12T02:56:27.910Z,3.53
2023-03-12T02:56:40.806Z,3.80
2023-03-12T02:56:55.052Z,3.97
2023-03-12T02:57:13.504Z,3.95
2023-03-12T02:57:26.556Z,4.07
2023-03-12T02:57:39.241Z,4.53
2023-03-12T02:57:54.768Z,4.30
2023-03-12T02:58:07.495Z,3.28
2023-03-12T02:58:21.886Z,4.60
2023-03-12T02:58:36.679Z,4.35
2023-03-12T02:58:49.091Z,5.38
2023-03-12T02:59:04.476Z,5.13
2023-03-12T02:59:21.995Z,3.55
2023-03-12T02:59:37.708Z,3.30
2023-03-12T02:59:52.522Z,3.92
2023-03-12T03:00:08.028Z,4.18
2023-03-12T03:00:22.311Z,3.97
2023-03-12T03:00:37.455Z,3.83
2023-03-12T03:00:50.152Z,3.65
2023-03-12T03:01:04.560Z,3.08
2023-03-12T03:01:20.345Z,3.28
2023-03-12T03:01:32.713Z,5.10
2023-03-12T03:01:45.789Z,4.68
2023-03-12T03:01:59.755Z,4.15
2023-03-12T03:02:12.120Z,3.83
2023-03-12T03:02:24.453Z,5.03
2023-03-12T03:02:37.123Z,5.63
2023-03-12T03:02:50.249Z,4.13
2023-03-12T03:03:03.761Z,3.60
2023-03-12T03:03:16.363Z,5.35
2023-03-12T03:03:28.597Z,5.53
2023-03-12T03:03:43.832Z,4.20
2023-03-12T03:03:56.265Z,3.40
2023-03-12T03:04:10.487Z,5.28
2023-03-12T03:04:24.073Z,6.38
2023-03-12T03:04:37.831Z,4.15
2023-03-12T03:04:53.994Z,3.58
2023-03-12T03:05:07.736Z,6.65
2023-03-12T03:05:19.916Z,7.25
2023-03-12T03:05:32.282Z,6.03
2023-03-12T03:05:44.733Z,3.65
2023-03-12T03:05:57.330Z,3.97
2023-03-12T03:06:09.417Z,4.35
2023-03-12T03:06:21.286Z,4.35
2023-03-12T03:06:34.332Z,3.97
2023-03-12T03:06:46.643Z,3.85
2023-03-12T03:06:59.818Z,4.00
2023-03-12T03:07:12.523Z,4.82
2023-03-12T03:07:24.592Z,4.22
2023-03-12T03:07:36.911Z,3.80
2023-03-12T03:07:49.885Z,4.80
2023-03-12T03:08:02.457Z,5.30
2023-03-12T03:08:17.017Z,4.40
2023-03-12T03:08:29.713Z,3.58
2023-03-12T03:08:44.173Z,3.58
2023-03-12T03:08:58.918Z,6.03
2023-03-12T03:09:12.183Z,6.43
2023-03-12T03:09:25.280Z,4.90
2023-03-12T03:09:38.106Z,4.25
2023-03-12T03:09:50.181Z,3.67
2023-03-12T03:10:02.689Z,4.10
2023-03-12T03:10:16.216Z,3.80
2023-03-12T03:10:28.311Z,3.45
2023-03-12T03:10:42.087Z,3.63
2023-03-12T03:10:56.584Z,3.45
2023-03-12T03:11:09.719Z,4.13
2023-03-12T03:11:22.742Z,6.95
2023-03-12T03:11:36.358Z,6.93
2023-03-12T03:11:50.657Z,6.50
2023-03-12T03:12:02.698Z,5.30
2023-03-12T03:12:18.190Z,3.67
2023-03-12T03:12:31.070Z,3.88
2023-03-12T03:12:45.241Z,3.80
2023-03-12T03:12:57.803Z,4.13
2023-03-12T03:13:10.594Z,3.72
2023-03-12T03:13:23.502Z,3.97
2023-03-12T03:13:36.157Z,3.90
2023-03-12T03:13:48.993Z,4.03
2023-03-12T03:14:01.419Z,4.68
2023-03-12T03:14:13.953Z,5.40
2023-03-12T03:14:27.081Z,3.97
2023-03-12T03:14:40.552Z,3.56
2023-03-12T03:14:53.909Z,3.80
2023-03-12T03:15:09.928Z,4.00
2023-03-12T03:15:30.387Z,5.55
2023-03-12T03:15:45.855Z,5.53
2023-03-12T03:15:58.350Z,4.72
2023-03-12T03:16:11.000Z,3.97
2023-03-12T03:16:24.744Z,4.05
2023-03-12T03:16:37.577Z,5.07
2023-03-12T03:16:52.024Z,4.15
2023-03-12T03:17:11.783Z,3.38
2023-03-12T03:17:34.485Z,3.70
2023-03-12T03:17:48.714Z,3.78
2023-03-12T03:18:01.352Z,4.03
2023-03-12T03:18:13.891Z,4.68
2023-03-12T03:18:26.982Z,5.25
2023-03-12T03:18:42.678Z,5.54
2023-03-12T03:18:55.340Z,5.50
2023-03-12T03:19:08.458Z,5.00
2023-03-12T03:19:20.401Z,5.13
2023-03-12T03:19:35.745Z,6.13
2023-03-12T03:19:51.838Z,5.18
2023-03-12T03:20:07.525Z,3.88
2023-03-12T03:20:21.190Z,3.97
2023-03-12T03:20:33.593Z,4.22
2023-03-12T03:20:46.628Z,4.22
2023-03-12T03:21:01.178Z,4.32
2023-03-12T03:21:18.058Z,5.20
2023-03-12T03:21:33.534Z,4.88
2023-03-12T03:21:48.694Z,3.90
2023-03-12T03:22:05.107Z,4.47